createdAt,value
2019-01-16T00:02:42.148Z,4.7
2019-01-16T00:07:41.030Z,4.7
2019-01-16T00:12:27.646Z,4.8
2019-01-16T00:17:27.411Z,4.9
2019-01-16T00:22:28.027Z,4.9
2019-01-16T00:27:28.133Z,4.9
2019-01-16T00:32:28.479Z,4.9
2019-01-16T00:37:29.551Z,4.9
2019-01-16T00:42:27.422Z,4.9
2019-01-16T00:47:28.339Z,5.1
2019-01-16T00:52:27.698Z,5.1
2019-01-16T00:57:27.897Z,5.2
2019-01-16T01:02:28.052Z,5.1
2019-01-16T01:07:27.593Z,5.0
2019-01-16T01:12:27.606Z,5.0
2019-01-16T01:17:28.948Z,5.1
2019-01-16T01:22:28.081Z,5.1
2019-01-16T01:27:28.735Z,5.1
2019-01-16T01:32:28.097Z,5.0
2019-01-16T01:37:28.216Z,5.1
2019-01-16T01:42:28.062Z,4.9
2019-01-16T01:47:27.751Z,4.8
2019-01-16T01:52:27.852Z,4.9
2019-01-16T01:57:27.418Z,4.9
2019-01-16T02:02:27.871Z,4.9
2019-01-16T02:07:27.748Z,4.9
2019-01-16T02:12:27.585Z,4.8
2019-01-16T02:17:28.454Z,4.8
2019-01-16T02:22:28.475Z,4.8
2019-01-16T02:27:27.546Z,4.8
2019-01-16T02:32:27.698Z,4.9
2019-01-16T02:37:28.075Z,4.9
2019-01-16T02:42:28.615Z,4.9
2019-01-16T02:47:27.663Z,4.8
2019-01-16T02:52:27.747Z,4.7
2019-01-16T02:57:27.691Z,4.6
2019-01-16T03:02:28.698Z,4.5
2019-01-16T03:07:27.851Z,4.4
2019-01-16T03:12:27.637Z,4.4
2019-01-16T03:17:28.415Z,4.3
2019-01-16T03:22:27.755Z,4.1
2019-01-16T03:27:29.058Z,4.0
2019-01-16T03:32:27.447Z,3.9
2019-01-16T03:37:30.074Z,3.9
2019-01-16T03:42:28.046Z,3.9
2019-01-16T03:47:27.611Z,3.9
2019-01-16T03:52:27.538Z,3.9
2019-01-16T03:57:28.329Z,4.0
2019-01-16T04:02:27.574Z,4.0
2019-01-16T04:07:27.993Z,4.1
2019-01-16T04:12:28.489Z,4.1
2019-01-16T04:17:28.820Z,4.2
2019-01-16T04:22:27.681Z,4.2
2019-01-16T04:27:27.773Z,4.2
2019-01-16T04:32:27.841Z,4.3
2019-01-16T04:37:27.525Z,4.3
2019-01-16T04:42:28.839Z,4.3
2019-01-16T04:47:28.037Z,4.3
2019-01-16T04:52:27.548Z,4.3
2019-01-16T04:57:27.585Z,4.1
2019-01-16T05:02:27.596Z,4.0
2019-01-16T05:07:28.555Z,3.9
2019-01-16T05:12:29.392Z,3.7
2019-01-16T05:17:28.224Z,3.5
2019-01-16T05:22:28.067Z,3.4
2019-01-16T05:27:28.603Z,3.2
2019-01-16T05:32:27.859Z,3.2
2019-01-16T05:37:28.160Z,3.2
2019-01-16T05:42:28.954Z,3.1
2019-01-16T05:47:28.307Z,3.1
2019-01-16T05:52:27.769Z,3.0
2019-01-16T05:57:28.391Z,2.9
2019-01-16T06:02:28.511Z,2.9
2019-01-16T06:07:28.436Z,2.9
2019-01-16T06:12:27.937Z,2.8
2019-01-16T06:17:28.508Z,2.8
2019-01-16T06:22:27.836Z,2.8
2019-01-16T06:27:28.496Z,2.9
2019-01-16T06:32:28.751Z,3.0
2019-01-16T06:37:28.339Z,3.0
2019-01-16T06:42:28.615Z,2.9
2019-01-16T06:47:28.908Z,2.8
2019-01-16T06:52:28.210Z,2.7
2019-01-16T06:57:28.980Z,2.6
2019-01-16T07:02:27.870Z,2.7
2019-01-16T07:07:28.550Z,2.6
2019-01-16T07:12:28.668Z,2.5
2019-01-16T07:17:28.877Z,2.4
2019-01-16T07:22:27.985Z,2.3
2019-01-16T07:27:29.428Z,2.4
2019-01-16T07:32:28.825Z,2.5
2019-01-16T07:37:28.270Z,2.4
2019-01-16T07:42:28.140Z,2.6
2019-01-16T07:47:28.384Z,2.6
2019-01-16T07:52:28.295Z,2.6
2019-01-16T07:57:28.385Z,2.6
2019-01-16T08:02:28.356Z,2.7
2019-01-16T08:07:28.989Z,2.7
2019-01-16T08:12:28.668Z,2.8
2019-01-16T08:17:28.864Z,2.9
2019-01-16T08:22:28.367Z,3.1
2019-01-16T08:27:28.475Z,3.3
2019-01-16T08:32:28.672Z,3.5
2019-01-16T08:37:28.760Z,3.9
2019-01-16T08:42:28.525Z,4.1
2019-01-16T08:47:29.160Z,4.1
2019-01-16T08:52:28.896Z,4.5
2019-01-16T08:57:28.586Z,4.4
2019-01-16T09:02:28.722Z,4.4
2019-01-16T09:07:29.017Z,4.6
2019-01-16T09:12:28.229Z,4.6
2019-01-16T09:17:28.893Z,4.9
2019-01-16T09:22:27.931Z,5.3
2019-01-16T09:27:28.937Z,5.7
2019-01-16T09:32:28.449Z,6.0
2019-01-16T09:37:30.040Z,6.5
2019-01-16T09:42:28.738Z,6.4
2019-01-16T09:47:28.822Z,6.7
2019-01-16T09:52:28.711Z,6.9
2019-01-16T09:57:27.751Z,7.0
2019-01-16T10:02:29.850Z,7.4
2019-01-16T10:07:28.718Z,7.7
2019-01-16T10:12:28.232Z,7.9
2019-01-16T10:17:28.326Z,8.2
2019-01-16T10:22:28.423Z,8.1
2019-01-16T10:27:29.155Z,8.2
2019-01-16T10:32:28.599Z,8.2
2019-01-16T10:37:28.264Z,8.4
2019-01-16T10:42:28.398Z,8.5
2019-01-16T10:47:29.419Z,8.4
2019-01-16T10:52:28.414Z,8.4
2019-01-16T10:57:27.857Z,8.4
2019-01-16T11:02:28.070Z,8.4
2019-01-16T11:07:28.735Z,8.4
2019-01-16T11:12:29.372Z,8.4
2019-01-16T11:17:27.833Z,8.3
2019-01-16T11:22:28.499Z,8.3
2019-01-16T11:27:28.235Z,8.3
2019-01-16T11:32:27.595Z,8.7
2019-01-16T11:37:29.012Z,8.7
2019-01-16T11:42:28.119Z,9.2
2019-01-16T11:47:28.644Z,9.2
2019-01-16T11:52:28.475Z,9.1
2019-01-16T11:57:28.399Z,9.2
2019-01-16T12:02:28.536Z,9.3
2019-01-16T12:07:28.450Z,9.4
2019-01-16T12:12:28.231Z,9.6
2019-01-16T12:17:29.782Z,9.7
2019-01-16T12:22:29.955Z,9.7
2019-01-16T12:27:29.363Z,9.7
2019-01-16T12:32:29.008Z,9.8
2019-01-16T12:37:27.864Z,9.8
2019-01-16T12:42:28.398Z,10.2
2019-01-16T12:47:29.197Z,10.1
2019-01-16T12:52:28.538Z,10.3
2019-01-16T12:57:28.651Z,10.2
2019-01-16T13:02:28.740Z,10.1
2019-01-16T13:07:28.667Z,10.2
2019-01-16T13:12:28.314Z,10.0
2019-01-16T13:17:29.046Z,9.8
2019-01-16T13:22:28.509Z,9.6
2019-01-16T13:27:28.543Z,9.6
2019-01-16T13:32:28.560Z,9.5
2019-01-16T13:37:28.359Z,9.4
2019-01-16T13:42:28.405Z,9.3
2019-01-16T13:47:28.840Z,9.3
2019-01-16T13:52:28.777Z,9.2
2019-01-16T13:57:27.679Z,9.1
2019-01-16T14:02:27.580Z,9.1
2019-01-16T14:07:27.616Z,8.8
2019-01-16T14:12:28.700Z,8.8
2019-01-16T14:17:29.408Z,8.8
2019-01-16T14:22:27.896Z,8.7
2019-01-16T14:27:28.093Z,8.6
2019-01-16T14:32:28.446Z,8.6
2019-01-16T14:37:29.500Z,8.5
2019-01-16T14:42:28.707Z,8.3
2019-01-16T14:47:29.055Z,8.3
2019-01-16T14:52:27.768Z,8.6
2019-01-16T14:57:27.717Z,9.5
2019-01-16T15:02:29.068Z,10.1
2019-01-16T15:07:28.329Z,10.4
2019-01-16T15:12:27.810Z,10.2
2019-01-16T15:17:28.905Z,9.8
2019-01-16T15:22:28.490Z,9.1
2019-01-16T15:27:28.794Z,8.5
2019-01-16T15:32:28.523Z,8.1
2019-01-16T15:37:29.642Z,7.3
2019-01-16T15:42:28.863Z,7.2
2019-01-16T15:47:29.811Z,7.0
2019-01-16T15:52:28.337Z,6.7
2019-01-16T15:57:28.843Z,6.4
2019-01-16T16:02:27.939Z,6.2
2019-01-16T16:07:28.585Z,6.0
2019-01-16T16:12:28.119Z,5.8
2019-01-16T16:17:29.151Z,5.7
2019-01-16T16:22:27.883Z,5.6
2019-01-16T16:27:28.293Z,5.5
2019-01-16T16:32:28.415Z,5.4
2019-01-16T16:37:27.775Z,5.4
2019-01-16T16:42:27.874Z,5.4
2019-01-16T16:47:28.276Z,5.3
2019-01-16T16:52:27.267Z,5.3
2019-01-16T16:57:27.938Z,5.2
2019-01-16T17:02:27.923Z,5.2
2019-01-16T17:07:28.161Z,5.1
2019-01-16T17:12:28.235Z,5.2
2019-01-16T17:17:29.156Z,5.2
2019-01-16T17:22:32.312Z,5.1
2019-01-16T17:27:27.624Z,5.2
2019-01-16T17:32:28.692Z,5.1
2019-01-16T17:37:28.422Z,5.1
2019-01-16T17:42:28.225Z,5.1
2019-01-16T17:47:28.683Z,5.2
2019-01-16T17:52:28.974Z,5.2
2019-01-16T17:57:27.875Z,5.2
2019-01-16T18:02:27.683Z,5.2
2019-01-16T18:07:28.265Z,5.2
2019-01-16T18:12:27.085Z,5.2
2019-01-16T18:17:28.801Z,5.2
2019-01-16T18:22:27.489Z,5.2
2019-01-16T18:27:28.292Z,5.2
2019-01-16T18:32:28.028Z,5.2
2019-01-16T18:37:28.382Z,5.2
2019-01-16T18:42:28.559Z,5.3
2019-01-16T18:47:28.490Z,5.3
2019-01-16T18:52:28.547Z,5.3
2019-01-16T18:57:28.911Z,5.4
2019-01-16T19:02:28.085Z,5.3
2019-01-16T19:07:28.067Z,5.3
2019-01-16T19:12:27.941Z,5.3
2019-01-16T19:17:28.134Z,5.4
2019-01-16T19:22:28.197Z,5.4
2019-01-16T19:27:28.150Z,5.4
2019-01-16T19:32:27.138Z,5.4
2019-01-16T19:37:27.950Z,5.4
2019-01-16T19:42:29.468Z,5.4
2019-01-16T19:47:28.174Z,5.4
2019-01-16T19:52:28.302Z,5.3
2019-01-16T19:57:28.259Z,5.2
2019-01-16T20:02:28.080Z,5.2
2019-01-16T20:07:28.216Z,5.1
2019-01-16T20:12:28.850Z,5.0
2019-01-16T20:17:28.106Z,4.9
2019-01-16T20:22:28.691Z,4.8
2019-01-16T20:27:28.916Z,4.8
2019-01-16T20:32:28.369Z,4.8
2019-01-16T20:37:28.634Z,4.7
2019-01-16T20:42:27.705Z,4.7
2019-01-16T20:47:28.241Z,4.7
2019-01-16T20:52:27.635Z,4.6
2019-01-16T20:57:27.763Z,4.6
2019-01-16T21:02:28.379Z,4.6
2019-01-16T21:07:28.250Z,4.6
2019-01-16T21:12:28.643Z,4.5
2019-01-16T21:17:28.975Z,4.4
2019-01-16T21:22:27.287Z,4.4
2019-01-16T21:27:28.472Z,4.3
2019-01-16T21:32:27.739Z,4.3
2019-01-16T21:37:28.537Z,4.2
2019-01-16T21:42:28.649Z,4.3
2019-01-16T21:47:27.854Z,4.2
2019-01-16T21:52:27.906Z,4.2
2019-01-16T21:57:27.460Z,4.1
2019-01-16T22:02:28.475Z,4.1
2019-01-16T22:07:27.908Z,4.1
2019-01-16T22:12:27.428Z,4.0
2019-01-16T22:17:28.323Z,4.0
2019-01-16T22:22:27.385Z,3.9
2019-01-16T22:27:29.150Z,3.9
2019-01-16T22:32:28.167Z,3.8
2019-01-16T22:37:27.320Z,3.7
2019-01-16T22:42:28.572Z,3.7
2019-01-16T22:47:28.170Z,3.7
2019-01-16T22:52:27.499Z,3.7
2019-01-16T22:57:28.760Z,3.6
2019-01-16T23:02:28.062Z,3.6
2019-01-16T23:07:27.877Z,3.5
2019-01-16T23:12:28.196Z,3.5
2019-01-16T23:22:40.787Z,3.3
2019-01-16T23:27:38.839Z,3.2
2019-01-16T23:32:38.825Z,3.2
2019-01-16T23:37:38.571Z,3.2
2019-01-16T23:42:39.117Z,3.1
2019-01-16T23:47:40.522Z,3.1
2019-01-16T23:52:39.341Z,3.0
2019-01-16T23:57:38.726Z,3.0
